| |
Missouri Department of Transportation

Social Media Facebook Twitter Flickr Instagram YouTube RSS

Current AWOS Information

AWOS Home - General Info for all Airports
Current AWOS for all Airports - Current METAR for all Airports
Glossary - Disclaimer - Other Links

Recent AWOS History
10/25/16     11:42 PM CDT      04:42 GMT
Air Temperature 55°F (13°C ) 1st Cloud Layer Vertical Visibility at 500 feet
Dew Point 46°F (8°C) 2nd Cloud Layer  
Barometric Pressure 30.27 in Hg. 3rd Cloud Layer  
Wind Speed 6 mph (5 knots) Density Altitude  
Peak Wind Gusts   Variable Wind Directions  
Wind Direction Quadrant(100°) Variable Visibility  
Visibility 1/2 statute miles  

Thunderstorm and Precipitation Identification:  Haze
Thunderstorm Remarks: 

Current METAR Record: METAR KRAW 250449Z AUTO 10006KT 1/2SM HZ VV005 13/08 A3027 RMK AO2




About Us
How Do I...
Contact Us
Missouri Department of Transportation
Central Office
105 W. Capitol Avenue
Jefferson City, MO 65102
1-888-ASK-MODOT (275-6636)
1-866-831-6277 (Motor Carrier Services)
Driver's License Offices
| | |
Missouri State Government
© 2013 Missouri Department of Transportation. All Rights Reserved.   Privacy Policy.
RSS FeedYoutubeBlogFlickrTwitter Facebook